x

Fripp Nearshore (frp 2) (41033) Weather Station

9:00am - Sat 1st Aug 2015 All times are EDT. -4 hours from GMT.

  • Wind
    7mph, 9mph gusts
  • Air Temp 81°f
  • Sea Pressure 1013.3mb
  • Fripp Nearshore (frp 2)
  • Fripp Nearshore (frp 2)

More Historic Weather Station data

Upgrade to MSW Pro to gain access to the past 30 days of data for over 8000 Wavebouys and Weather Stations around the globe.

Join Pro

Comparision Forecast

View Surf forecast
   
Sat 08/01 9:00am 7 9 mph 1013.3mb 81f
8:00am 7 9 mph 1012.7mb 80f
7:00am 7 9 mph 1012.4mb 80f
6:00am 11 16 mph 1012.3mb 81f
5:00am 13 18 mph 1012.3mb 82f
4:00am 11 16 mph 1012.4mb 82f
3:00am 9
mph
1012.8mb 83f
2:00am 4 7 mph 1012.7mb 83f
1:00am 9 11 mph 1013.2mb 83f
12:00am 13 16 mph 1013.3mb 83f
Fri 07/31 11:00pm 13 16 mph 1013.7mb 83f
10:00pm 16 18 mph 1013.5mb 83f
9:00pm 13 16 mph 1013.1mb 83f
8:00pm 11 13 mph 1012.3mb 83f
6:00pm 11 13 mph 1012.4mb 83f
5:00pm 16 20 mph 1012.4mb 83f
3:00pm 13 16 mph 1012.8mb 84f
2:00pm 18 20 mph 1013.7mb 82f
1:00pm 13
mph
1013.8mb 83f
12:00pm 11 13 mph 1014.3mb 81f
11:00am 7 9 mph 1014.3mb 79f
10:00am 25 27 mph 1013.2mb 80f
9:00am 11
mph
1012.8mb 76f
8:00am 18 22 mph 1012.5mb 81f
7:00am 11 13 mph 1012.4mb 84f
6:00am 9 13 mph 1011.9mb 84f
5:00am 13 16 mph 1011.7mb 84f
4:00am 11 13 mph 1011.6mb 84f
3:00am 18 20 mph 1011.7mb 83f
2:00am 20 22 mph 1012.6mb 81f
1:00am 25 29 mph 1013mb 80f
12:00am 25 29 mph 1012.9mb 80f
Thu 07/30 11:00pm 13 18 mph 1013.5mb 84f
9:00pm 16 20 mph 1011.8mb 84f
8:00pm 13 16 mph 1011.7mb 86f
6:00pm 11 13 mph 1011.1mb 86f
5:00pm 11 13 mph 1011.4mb 86f
4:00pm 13 16 mph 1012.1mb 85f
3:00pm 11 13 mph 1013.3mb 85f
2:00pm 9
mph
1014mb 85f
1:00pm 4 9 mph 1014.7mb 86f
12:00pm 4
mph
1014.9mb 86f
11:00am 7
mph
1014.7mb 85f
10:00am 7 9 mph 1014.3mb 84f
9:00am 7 9 mph 1014mb 83f
8:00am 9 11 mph 1013.5mb 82f
7:00am 9 11 mph 1013.2mb 80f
6:00am 13 16 mph 1012.9mb 81f
5:00am 11
mph
1012.6mb 82f
4:00am 7
mph
1013.1mb 82f
3:00am 2 4 mph 1013.7mb 82f
2:00am 2 4 mph 1014.3mb 82f
Wed 07/29 10:00pm 7 9 mph 1014.1mb 83f
9:00pm 16 18 mph 1013.6mb 83f
8:00pm 13 16 mph 1013.4mb 83f
7:00pm 16 18 mph 1012.8mb 83f
6:00pm 11 16 mph 1012.5mb 84f
5:00pm 9 11 mph 1012.7mb 85f
4:00pm 11 16 mph 1013.3mb 85f
3:00pm 11 13 mph 1014.4mb 85f
2:00pm 11 13 mph 1014.5mb 85f
1:00pm 11 13 mph 1015mb 85f
11:00am 9 11 mph 1015.7mb 83f
10:00am 9 11 mph 1015.2mb 84f
9:00am 9 11 mph 1015mb 82f
8:00am 9 11 mph 1014.4mb 82f
7:00am 9 11 mph 1014mb 82f
6:00am 9
mph
1013.3mb 82f
5:00am 9 11 mph 1013.2mb 82f
4:00am 7 9 mph 1013.3mb 82f
3:00am 7 9 mph 1013.5mb 82f
2:00am 9 13 mph 1013.9mb 83f
1:00am 7 9 mph 1014.5mb 83f
12:00am 11 13 mph 1014.5mb 83f
Tue 07/28 11:00pm 11 16 mph 1014.7mb 83f
10:00pm 13 18 mph 1014.2mb 83f
9:00pm 13 18 mph 1013.6mb 82f
8:00pm 16 18 mph 1013.7mb 82f
7:00pm 13 16 mph 1013.3mb 83f
3:00pm 16 18 mph 1014.2mb 84f